Time;durP1;ratioP1;P1;durP2;ratioP2;P2;SDS_P1;SDS_P2;PMS_P1;PMS_P2;Temp;Humidity;BMP_temperature;BMP_pressure;BME280_temperature;BME280_humidity;BME280_pressure;Samples;Min_cycle;Max_cycle;Signal;HPM_P1;HPM_P2
2022/03/13 00:01:03;;;;;;;6.27;2.10;;;5.90;99.90;;;;;;5042946;28;20179;-69
2022/03/13 00:03:32;;;;;;;3.87;1.83;;;5.90;99.90;;;;;;5037789;28;20175;-69
2022/03/13 00:06:02;;;;;;;6.87;2.60;;;6.00;99.90;;;;;;5060623;28;20808;-68
2022/03/13 00:08:31;;;;;;;5.70;2.00;;;6.10;99.90;;;;;;5045108;28;20195;-68
2022/03/13 00:11:17;;;;;;;4.80;1.80;;;6.10;99.90;;;;;;5063192;28;20222;-68
2022/03/13 00:13:53;;;;;;;6.30;1.80;;;6.20;99.90;;;;;;5024920;28;20271;-69
2022/03/13 00:16:21;;;;;;;3.37;1.77;;;6.20;99.90;;;;;;5058319;28;20210;-68
2022/03/13 00:18:48;;;;;;;4.17;2.00;;;6.20;99.90;;;;;;5063050;28;20187;-68
2022/03/13 00:21:18;;;;;;;3.87;1.80;;;6.20;99.90;;;;;;5049502;28;20187;-68
2022/03/13 00:23:47;;;;;;;10.63;1.90;;;6.30;99.90;;;;;;5063113;28;20684;-68
2022/03/13 00:26:15;;;;;;;7.80;1.80;;;6.20;99.90;;;;;;5049787;28;20178;-68
2022/03/13 00:28:43;;;;;;;6.87;1.70;;;6.10;99.90;;;;;;5048529;28;20203;-68
2022/03/13 00:31:09;;;;;;;5.10;2.40;;;6.00;99.90;;;;;;5050637;28;20198;-69
2022/03/13 00:33:35;;;;;;;6.37;1.90;;;5.90;99.90;;;;;;5067723;28;20229;-68
2022/03/13 00:36:03;;;;;;;4.50;1.90;;;5.80;99.90;;;;;;5045699;28;20222;-68
2022/03/13 00:38:30;;;;;;;4.73;1.80;;;5.70;99.90;;;;;;5063589;28;20536;-68
2022/03/13 00:40:59;;;;;;;3.37;1.70;;;5.70;99.90;;;;;;5048324;28;20186;-68
2022/03/13 00:43:30;;;;;;;3.80;1.80;;;5.60;99.90;;;;;;5037568;28;20191;-68
2022/03/13 00:45:56;;;;;;;3.87;1.83;;;5.70;99.90;;;;;;5041615;28;20229;-68
2022/03/13 00:48:27;;;;;;;3.77;2.20;;;5.70;99.90;;;;;;5043998;28;20193;-68
2022/03/13 00:50:53;;;;;;;11.60;1.90;;;5.70;99.90;;;;;;5063427;28;20212;-69
2022/03/13 00:53:19;;;;;;;3.17;1.90;;;5.70;99.90;;;;;;5062848;28;20623;-68
2022/03/13 00:55:46;;;;;;;3.60;1.90;;;5.80;99.90;;;;;;5058299;28;20208;-68
2022/03/13 00:58:12;;;;;;;5.67;2.27;;;5.80;99.90;;;;;;5062070;28;20163;-68
2022/03/13 01:00:40;;;;;;;6.03;2.07;;;5.80;99.90;;;;;;5068063;28;20267;-68
2022/03/13 01:03:06;;;;;;;4.17;2.03;;;5.90;99.90;;;;;;5049232;28;20226;-68
2022/03/13 01:05:32;;;;;;;6.83;2.20;;;5.80;99.90;;;;;;5048155;28;20264;-68
2022/03/13 01:07:59;;;;;;;9.50;2.17;;;5.70;99.90;;;;;;5047527;28;20822;-68
2022/03/13 01:10:25;;;;;;;4.37;1.87;;;5.60;99.90;;;;;;5065724;28;20226;-69
2022/03/13 01:12:53;;;;;;;4.40;1.93;;;5.50;99.90;;;;;;5057542;28;20293;-68
2022/03/13 01:15:20;;;;;;;8.90;2.17;;;5.30;99.90;;;;;;5065778;28;20552;-68
2022/03/13 01:17:48;;;;;;;4.67;2.10;;;5.20;99.90;;;;;;5023144;28;20604;-68
2022/03/13 01:20:21;;;;;;;7.30;2.07;;;5.20;99.90;;;;;;5068436;28;20216;-69
2022/03/13 01:22:49;;;;;;;6.47;1.97;;;5.20;99.90;;;;;;5049143;28;20278;-68
2022/03/13 01:25:17;;;;;;;6.00;2.30;;;5.20;99.90;;;;;;5067334;28;20194;-68
2022/03/13 01:27:43;;;;;;;2.93;1.50;;;5.20;99.90;;;;;;5053890;28;20617;-68
2022/03/13 01:30:13;;;;;;;5.10;1.83;;;5.20;99.90;;;;;;5062760;28;20955;-69
2022/03/13 01:32:42;;;;;;;6.73;1.90;;;5.20;99.90;;;;;;5065582;28;20198;-69
2022/03/13 01:35:09;;;;;;;2.03;1.60;;;5.30;99.90;;;;;;5050066;28;20243;-68
2022/03/13 01:37:40;;;;;;;3.93;1.83;;;5.30;99.90;;;;;;5049452;28;20210;-68
2022/03/13 01:40:12;;;;;;;3.37;1.90;;;5.30;99.90;;;;;;5064620;28;20647;-69
2022/03/13 01:42:40;;;;;;;4.57;1.60;;;5.30;99.90;;;;;;5042007;28;20746;-69
2022/03/13 01:45:14;;;;;;;2.83;1.53;;;5.30;99.90;;;;;;5067815;28;20195;-68
2022/03/13 01:47:42;;;;;;;4.57;1.60;;;5.40;99.90;;;;;;5067294;28;20269;-68
2022/03/13 01:50:11;;;;;;;3.47;1.70;;;5.30;99.90;;;;;;5063544;28;20319;-68
2022/03/13 01:52:44;;;;;;;9.20;1.70;;;5.30;99.90;;;;;;5056157;28;20183;-68
2022/03/13 01:55:11;;;;;;;5.97;2.27;;;5.30;99.90;;;;;;5066156;28;20229;-69
2022/03/13 01:57:37;;;;;;;5.30;2.10;;;5.20;99.90;;;;;;5035606;28;20218;-68
2022/03/13 02:00:08;;;;;;;4.40;2.00;;;5.20;99.90;;;;;;5052707;28;20182;-68
2022/03/13 02:02:35;;;;;;;10.33;2.63;;;5.10;99.90;;;;;;5052266;28;20205;-69
2022/03/13 02:05:02;;;;;;;6.37;1.77;;;5.10;99.90;;;;;;5058840;28;20289;-68
2022/03/13 02:07:29;;;;;;;3.80;2.00;;;5.00;99.90;;;;;;5071145;28;20520;-68
2022/03/13 02:09:56;;;;;;;4.20;2.10;;;5.00;99.90;;;;;;5071727;28;20214;-69
2022/03/13 02:12:26;;;;;;;5.00;2.07;;;5.00;99.90;;;;;;5069013;28;20659;-69
2022/03/13 02:14:52;;;;;;;7.57;2.37;;;4.90;99.90;;;;;;5048364;28;20187;-68
2022/03/13 02:17:35;;;;;;;9.07;2.50;;;4.80;99.90;;;;;;5046262;28;20633;-68
2022/03/13 02:20:03;;;;;;;5.43;2.40;;;4.70;99.90;;;;;;5071203;28;21022;-69
2022/03/13 02:22:31;;;;;;;4.87;2.30;;;4.70;99.90;;;;;;5069727;28;20290;-69
2022/03/13 02:24:57;;;;;;;7.77;2.50;;;4.70;99.90;;;;;;5052762;28;20243;-68
2022/03/13 02:27:29;;;;;;;4.90;2.47;;;4.60;99.90;;;;;;5042918;28;20595;-68
2022/03/13 02:29:56;;;;;;;5.67;2.40;;;4.70;99.90;;;;;;5033495;28;20202;-68
2022/03/13 02:32:22;;;;;;;5.33;2.60;;;4.70;99.90;;;;;;5060696;28;20377;-68
2022/03/13 02:34:49;;;;;;;3.17;2.30;;;4.60;99.90;;;;;;5071254;28;20755;-68
2022/03/13 02:37:40;;;;;;;7.47;2.40;;;4.70;99.90;;;;;;5039775;28;20745;-68
2022/03/13 02:40:17;;;;;;;7.07;2.63;;;4.70;99.90;;;;;;5066854;28;20202;-68
2022/03/13 02:42:44;;;;;;;7.97;2.90;;;4.80;99.90;;;;;;5064122;28;20729;-68
2022/03/13 02:45:11;;;;;;;4.07;2.17;;;4.80;99.90;;;;;;5055808;28;20205;-68
2022/03/13 02:47:37;;;;;;;5.80;2.67;;;4.80;99.90;;;;;;5047515;28;20237;-68
2022/03/13 02:50:04;;;;;;;3.93;2.50;;;4.80;99.90;;;;;;5016589;28;20187;-68
2022/03/13 02:52:30;;;;;;;4.60;2.87;;;4.80;99.90;;;;;;5080337;28;20271;-68
2022/03/13 02:54:57;;;;;;;5.17;2.40;;;4.80;99.90;;;;;;5047404;28;20293;-68
2022/03/13 02:57:23;;;;;;;8.10;2.50;;;4.80;99.90;;;;;;5033232;28;20186;-68
2022/03/13 02:59:49;;;;;;;5.30;2.70;;;4.80;99.90;;;;;;5058341;28;20187;-68
2022/03/13 03:02:18;;;;;;;3.87;2.50;;;4.80;99.90;;;;;;5036137;28;20228;-68
2022/03/13 03:04:44;;;;;;;8.30;3.37;;;4.90;99.90;;;;;;5052525;28;20175;-68
2022/03/13 03:07:11;;;;;;;6.70;2.67;;;4.90;99.90;;;;;;5031488;28;20193;-68
2022/03/13 03:09:38;;;;;;;4.43;2.40;;;4.90;99.90;;;;;;5033684;28;20191;-68
2022/03/13 03:12:05;;;;;;;7.83;2.97;;;4.80;99.90;;;;;;5063914;28;20183;-68
2022/03/13 03:14:34;;;;;;;10.53;4.13;;;4.80;99.90;;;;;;5066479;28;20198;-68
2022/03/13 03:17:00;;;;;;;7.73;2.83;;;4.80;99.90;;;;;;5040891;28;20218;-68
2022/03/13 03:19:27;;;;;;;5.80;3.33;;;4.80;99.90;;;;;;5068161;28;20187;-68
2022/03/13 03:21:54;;;;;;;5.53;2.80;;;4.80;99.90;;;;;;5070095;28;20183;-68
2022/03/13 03:24:25;;;;;;;6.80;2.63;;;4.80;99.90;;;;;;5047583;28;20180;-68
2022/03/13 03:26:53;;;;;;;6.23;2.97;;;4.80;99.90;;;;;;5031444;28;20230;-68
2022/03/13 03:29:20;;;;;;;7.77;2.80;;;4.70;99.90;;;;;;5065118;28;20194;-68
2022/03/13 03:31:49;;;;;;;5.20;3.30;;;4.70;99.90;;;;;;5069074;28;20194;-68
2022/03/13 03:34:22;;;;;;;8.07;3.17;;;4.70;99.90;;;;;;5051717;28;20512;-68
2022/03/13 03:36:56;;;;;;;6.47;3.03;;;4.70;99.90;;;;;;5050486;28;20226;-68
2022/03/13 03:39:24;;;;;;;6.47;2.90;;;4.80;99.90;;;;;;5058330;28;20650;-68
2022/03/13 03:41:53;;;;;;;5.90;3.00;;;4.90;99.90;;;;;;5046005;28;20179;-68
2022/03/13 03:44:21;;;;;;;7.63;2.90;;;4.80;99.90;;;;;;5044490;28;20187;-69
2022/03/13 03:46:49;;;;;;;9.10;2.73;;;4.90;99.90;;;;;;5034706;28;20179;-68
2022/03/13 03:49:16;;;;;;;5.00;3.13;;;4.80;99.90;;;;;;5034960;28;20199;-68
2022/03/13 03:51:44;;;;;;;5.50;2.77;;;4.90;99.90;;;;;;5031850;28;20180;-68
2022/03/13 03:54:11;;;;;;;6.23;2.93;;;4.90;99.90;;;;;;5053692;28;20242;-68
2022/03/13 03:56:38;;;;;;;11.03;3.00;;;4.80;99.90;;;;;;5049863;28;20207;-68
2022/03/13 03:59:05;;;;;;;4.33;2.50;;;4.80;99.90;;;;;;5032634;28;20286;-69
2022/03/13 04:01:40;;;;;;;10.13;2.53;;;4.90;99.90;;;;;;5065685;28;20273;-68
2022/03/13 04:04:09;;;;;;;4.60;2.10;;;4.80;99.90;;;;;;5050212;28;20237;-68
2022/03/13 04:06:39;;;;;;;4.77;2.70;;;4.80;99.90;;;;;;5057686;28;20199;-68
2022/03/13 04:09:11;;;;;;;6.30;2.30;;;4.80;99.90;;;;;;5050439;28;20218;-68
2022/03/13 04:11:40;;;;;;;6.90;2.50;;;4.80;99.90;;;;;;5030723;28;20655;-68
2022/03/13 04:14:09;;;;;;;7.10;2.03;;;4.90;99.90;;;;;;5065176;28;20361;-68
2022/03/13 04:16:35;;;;;;;6.10;2.43;;;4.90;99.90;;;;;;5049095;28;20218;-68
2022/03/13 04:19:01;;;;;;;6.43;2.27;;;4.90;99.90;;;;;;5034598;28;20228;-68
2022/03/13 04:21:28;;;;;;;5.40;2.03;;;4.90;99.90;;;;;;5069219;28;20183;-68
2022/03/13 04:23:54;;;;;;;5.97;2.83;;;4.90;99.90;;;;;;5048794;28;20404;-68
2022/03/13 04:26:25;;;;;;;10.97;2.90;;;4.90;99.90;;;;;;5052572;28;20189;-68
2022/03/13 04:28:51;;;;;;;14.50;3.30;;;4.90;99.90;;;;;;5068685;28;20247;-68
2022/03/13 04:31:18;;;;;;;9.33;3.60;;;4.90;99.90;;;;;;5041383;28;20194;-68
2022/03/13 04:33:45;;;;;;;7.90;3.37;;;4.90;99.90;;;;;;5053509;28;20200;-68
2022/03/13 04:36:14;;;;;;;5.03;3.00;;;4.90;99.90;;;;;;5056339;28;20230;-68
2022/03/13 04:38:41;;;;;;;10.03;3.40;;;4.80;99.90;;;;;;5035558;28;20682;-68
2022/03/13 04:41:08;;;;;;;10.10;3.77;;;4.80;99.90;;;;;;5049553;28;20276;-68
2022/03/13 04:43:34;;;;;;;10.77;3.13;;;4.70;99.90;;;;;;5031442;28;20191;-69
2022/03/13 04:46:01;;;;;;;5.77;3.40;;;4.70;99.90;;;;;;5048839;28;20183;-68
2022/03/13 04:48:28;;;;;;;9.90;4.07;;;4.70;99.90;;;;;;5057712;28;20642;-68
2022/03/13 04:50:54;;;;;;;8.03;3.60;;;4.70;99.90;;;;;;5067225;28;20674;-68
2022/03/13 04:53:20;;;;;;;14.77;3.93;;;4.70;99.90;;;;;;5066056;28;20859;-68
2022/03/13 04:55:46;;;;;;;10.00;3.67;;;4.70;99.90;;;;;;5059001;28;20210;-68
2022/03/13 04:58:13;;;;;;;9.80;3.90;;;4.70;99.90;;;;;;5064427;28;20182;-68
2022/03/13 05:00:40;;;;;;;9.03;3.57;;;4.70;99.90;;;;;;5056435;28;20286;-69
2022/03/13 05:03:07;;;;;;;11.60;4.10;;;4.70;99.90;;;;;;5037275;28;20635;-68
2022/03/13 05:05:34;;;;;;;17.33;4.47;;;4.70;99.90;;;;;;5054545;28;20187;-68
2022/03/13 05:08:05;;;;;;;7.57;3.73;;;4.80;99.90;;;;;;5046261;28;20659;-68
2022/03/13 05:10:39;;;;;;;11.10;3.40;;;4.80;99.90;;;;;;5063119;28;20191;-69
2022/03/13 05:13:07;;;;;;;9.00;3.97;;;4.80;99.90;;;;;;5050642;28;20337;-68
2022/03/13 05:15:36;;;;;;;8.23;3.67;;;4.80;99.90;;;;;;5039259;28;20246;-68
2022/03/13 05:18:03;;;;;;;12.00;3.77;;;4.80;99.90;;;;;;5029737;28;20196;-68
2022/03/13 05:20:31;;;;;;;7.57;3.83;;;4.80;99.90;;;;;;5062876;28;20183;-68
2022/03/13 05:22:58;;;;;;;8.40;3.43;;;4.80;99.90;;;;;;5039629;28;20224;-68
2022/03/13 05:25:25;;;;;;;7.77;3.33;;;4.80;99.90;;;;;;5067603;28;20187;-68
2022/03/13 05:27:55;;;;;;;6.60;3.00;;;4.60;99.90;;;;;;5043111;28;20187;-68
2022/03/13 05:30:21;;;;;;;7.83;3.20;;;4.40;99.90;;;;;;5066806;28;20273;-68
2022/03/13 05:32:48;;;;;;;6.40;2.93;;;4.20;99.90;;;;;;5067726;28;20187;-68
2022/03/13 05:35:16;;;;;;;5.63;3.13;;;4.20;99.90;;;;;;5047485;28;20226;-69
2022/03/13 05:37:44;;;;;;;6.23;3.00;;;4.00;99.90;;;;;;5040017;28;20837;-69
2022/03/13 05:40:15;;;;;;;3.57;3.03;;;4.00;99.90;;;;;;5063983;28;20210;-68
2022/03/13 05:42:46;;;;;;;4.43;2.80;;;3.90;99.90;;;;;;5034963;28;20232;-68
2022/03/13 05:45:15;;;;;;;4.13;3.27;;;3.80;99.90;;;;;;5041210;28;20181;-68
2022/03/13 05:48:10;;;;;;;8.23;3.20;;;3.80;99.90;;;;;;5076518;28;20199;-68
2022/03/13 05:50:38;;;;;;;7.60;3.77;;;3.80;99.90;;;;;;5032291;28;20233;-68
2022/03/13 05:53:05;;;;;;;6.10;4.10;;;3.70;99.90;;;;;;5047785;28;20189;-68
2022/03/13 05:55:34;;;;;;;9.73;5.63;;;3.70;99.90;;;;;;5061966;28;20294;-68
2022/03/13 05:58:01;;;;;;;9.67;5.20;;;3.70;99.90;;;;;;5065163;28;20525;-68
2022/03/13 06:00:32;;;;;;;7.73;4.90;;;3.60;99.90;;;;;;5065943;28;20528;-68
2022/03/13 06:03:00;;;;;;;8.60;4.00;;;3.50;99.90;;;;;;5066401;28;20187;-68
2022/03/13 06:05:35;;;;;;;5.27;3.60;;;3.50;99.90;;;;;;5066156;28;20183;-68
2022/03/13 06:08:03;;;;;;;7.57;4.10;;;3.50;99.90;;;;;;5066558;28;20186;-69
2022/03/13 06:10:30;;;;;;;11.23;4.20;;;3.50;99.90;;;;;;5067033;28;20699;-68
2022/03/13 06:12:56;;;;;;;4.67;3.50;;;3.50;99.90;;;;;;5062317;28;20190;-68
2022/03/13 06:15:23;;;;;;;6.17;3.60;;;3.60;99.90;;;;;;5045355;28;20203;-68
2022/03/13 06:17:51;;;;;;;8.47;3.80;;;3.70;99.90;;;;;;5053688;28;20493;-69
2022/03/13 06:20:18;;;;;;;6.93;3.50;;;3.80;99.90;;;;;;5038050;28;20188;-68
2022/03/13 06:22:47;;;;;;;9.87;3.30;;;3.70;99.90;;;;;;5048706;28;20702;-68
2022/03/13 06:25:16;;;;;;;4.37;3.23;;;3.60;99.90;;;;;;5035375;28;20188;-68
2022/03/13 06:27:44;;;;;;;5.00;3.30;;;3.50;99.90;;;;;;5041438;28;20192;-68
2022/03/13 06:30:15;;;;;;;5.97;3.10;;;3.20;99.90;;;;;;5029893;28;20187;-68
2022/03/13 06:32:45;;;;;;;3.37;2.70;;;3.10;99.90;;;;;;5054265;28;20202;-68
2022/03/13 06:35:14;;;;;;;3.40;2.47;;;2.80;99.90;;;;;;5060930;28;20540;-68
2022/03/13 06:37:42;;;;;;;3.13;2.47;;;2.60;99.90;;;;;;5027627;28;20217;-68
2022/03/13 06:40:10;;;;;;;3.20;2.63;;;2.60;99.90;;;;;;5036826;28;20199;-68
2022/03/13 06:42:40;;;;;;;2.87;2.47;;;2.70;99.90;;;;;;5022431;28;20187;-68
2022/03/13 06:45:10;;;;;;;3.33;2.40;;;2.80;99.90;;;;;;5021238;28;20218;-68
2022/03/13 06:47:38;;;;;;;2.87;2.30;;;2.80;99.90;;;;;;5054200;28;20194;-68
2022/03/13 06:50:08;;;;;;;3.43;2.00;;;2.80;99.90;;;;;;5044217;28;20184;-68
2022/03/13 06:52:35;;;;;;;3.07;1.97;;;2.90;99.90;;;;;;5051201;28;20187;-68
2022/03/13 06:55:04;;;;;;;2.80;1.90;;;3.00;99.90;;;;;;5055991;28;20206;-69
2022/03/13 06:57:30;;;;;;;4.07;2.10;;;3.10;99.90;;;;;;5049653;28;20183;-68
2022/03/13 06:59:57;;;;;;;2.83;1.90;;;3.20;99.90;;;;;;5058434;28;20190;-68
2022/03/13 07:02:24;;;;;;;5.57;2.87;;;3.30;99.90;;;;;;5052219;28;20191;-68
2022/03/13 07:04:51;;;;;;;3.17;2.43;;;3.30;99.90;;;;;;5042071;28;20749;-68
2022/03/13 07:07:17;;;;;;;5.90;3.10;;;3.40;99.90;;;;;;5051811;28;20194;-68
2022/03/13 07:09:43;;;;;;;4.93;3.27;;;3.50;99.90;;;;;;5060153;28;20350;-68
2022/03/13 07:12:11;;;;;;;5.83;3.30;;;3.60;99.90;;;;;;5036424;28;20195;-68
2022/03/13 07:14:44;;;;;;;5.47;2.83;;;3.80;99.90;;;;;;5037624;28;20221;-68
2022/03/13 07:17:11;;;;;;;5.00;3.20;;;3.90;99.90;;;;;;5068430;28;20742;-68
2022/03/13 07:19:40;;;;;;;8.77;3.57;;;4.10;99.90;;;;;;5045186;28;20270;-68
2022/03/13 07:22:09;;;;;;;5.63;3.00;;;4.10;99.90;;;;;;5069473;28;20191;-68
2022/03/13 07:24:35;;;;;;;10.27;3.20;;;4.10;99.90;;;;;;5051867;28;20194;-68
2022/03/13 07:27:02;;;;;;;7.50;3.50;;;4.00;99.90;;;;;;5043327;28;20210;-68
2022/03/13 07:29:28;;;;;;;4.97;3.20;;;4.10;99.90;;;;;;5040394;28;20693;-68
2022/03/13 07:31:56;;;;;;;6.17;3.50;;;4.10;99.90;;;;;;5056921;28;20643;-68
2022/03/13 07:34:27;;;;;;;6.90;3.17;;;4.20;99.90;;;;;;5066018;28;20676;-68
2022/03/13 07:36:55;;;;;;;5.37;2.90;;;4.20;99.90;;;;;;5032259;28;20230;-68
2022/03/13 07:39:22;;;;;;;8.93;3.13;;;4.00;99.90;;;;;;5065745;28;20195;-68
2022/03/13 07:41:53;;;;;;;4.50;2.60;;;4.00;99.90;;;;;;5065579;28;20622;-68
2022/03/13 07:44:20;;;;;;;4.97;2.80;;;4.00;99.90;;;;;;5051154;28;20682;-68
2022/03/13 07:46:46;;;;;;;6.13;3.30;;;4.10;99.90;;;;;;5050130;28;20233;-68
2022/03/13 07:49:13;;;;;;;4.37;2.90;;;3.90;99.90;;;;;;5068187;28;20320;-68
2022/03/13 07:51:39;;;;;;;4.37;3.00;;;4.00;99.90;;;;;;5062136;28;20195;-68
2022/03/13 07:54:05;;;;;;;3.80;2.53;;;3.90;99.90;;;;;;5038364;28;20697;-68
2022/03/13 07:56:32;;;;;;;3.70;2.90;;;3.60;99.90;;;;;;5046346;28;20222;-68
2022/03/13 07:58:58;;;;;;;4.27;2.17;;;3.30;99.90;;;;;;5062768;28;20651;-68
2022/03/13 08:01:24;;;;;;;6.97;2.30;;;3.00;99.90;;;;;;5060040;28;20191;-68
2022/03/13 08:03:51;;;;;;;20.90;2.37;;;2.70;99.90;;;;;;5041404;28;20247;-68
2022/03/13 08:06:17;;;;;;;2.70;2.03;;;2.40;99.90;;;;;;5058843;28;20195;-68
2022/03/13 08:08:44;;;;;;;6.83;3.13;;;2.50;99.90;;;;;;5067107;28;20220;-68
2022/03/13 08:11:10;;;;;;;5.47;2.90;;;2.30;99.90;;;;;;5065452;28;20203;-68
2022/03/13 08:13:36;;;;;;;3.30;2.70;;;2.30;99.90;;;;;;5060399;28;20269;-68
2022/03/13 08:16:03;;;;;;;5.67;3.90;;;2.40;99.90;;;;;;5041574;28;20734;-68
2022/03/13 08:18:30;;;;;;;7.73;4.17;;;2.50;99.90;;;;;;5041055;28;20185;-68
2022/03/13 08:20:57;;;;;;;11.13;4.70;;;2.60;99.90;;;;;;5051022;28;21466;-68
2022/03/13 08:23:23;;;;;;;7.00;4.73;;;2.90;99.90;;;;;;5067673;28;20190;-68
2022/03/13 08:25:50;;;;;;;5.30;4.33;;;3.10;99.90;;;;;;5067185;28;20199;-68
2022/03/13 08:28:16;;;;;;;6.37;4.23;;;3.20;99.90;;;;;;5065892;28;20786;-68
2022/03/13 08:30:43;;;;;;;8.80;3.77;;;3.60;99.90;;;;;;5067463;28;20924;-68
2022/03/13 08:33:09;;;;;;;6.73;4.10;;;3.70;99.90;;;;;;5049966;28;20198;-68
2022/03/13 08:35:36;;;;;;;8.60;3.97;;;3.90;99.90;;;;;;5031242;28;20613;-69
2022/03/13 08:38:02;;;;;;;9.07;4.10;;;4.00;99.90;;;;;;5049502;28;20218;-68
2022/03/13 08:40:31;;;;;;;6.30;3.60;;;4.10;99.90;;;;;;5065757;28;20190;-68
2022/03/13 08:42:57;;;;;;;5.57;3.80;;;4.10;99.90;;;;;;5064048;28;20275;-69
2022/03/13 08:45:24;;;;;;;5.73;3.77;;;4.20;99.90;;;;;;5066372;28;20201;-68
2022/03/13 08:47:51;;;;;;;5.70;3.80;;;4.30;99.90;;;;;;5066423;28;20220;-68
2022/03/13 08:50:19;;;;;;;7.37;3.57;;;4.50;99.90;;;;;;5066312;28;20944;-68
2022/03/13 08:52:45;;;;;;;7.60;4.30;;;4.50;99.90;;;;;;5061805;28;20663;-68
2022/03/13 08:55:17;;;;;;;4.77;3.67;;;4.40;99.90;;;;;;5061556;28;20195;-68
2022/03/13 08:57:45;;;;;;;8.27;3.80;;;4.30;99.90;;;;;;5048877;28;20389;-68
2022/03/13 09:00:15;;;;;;;10.07;3.80;;;4.20;99.90;;;;;;5066780;28;20383;-68
2022/03/13 09:02:44;;;;;;;5.73;4.00;;;4.20;99.90;;;;;;5048391;28;20206;-68
2022/03/13 09:05:14;;;;;;;7.30;4.70;;;4.20;99.90;;;;;;5028808;28;20187;-68
2022/03/13 09:07:40;;;;;;;7.80;3.90;;;4.30;99.90;;;;;;5048595;28;20274;-67
2022/03/13 09:10:08;;;;;;;7.80;3.50;;;4.40;99.90;;;;;;5067468;28;20189;-68
2022/03/13 09:12:36;;;;;;;5.40;3.53;;;4.50;99.90;;;;;;5065847;28;21032;-68
2022/03/13 09:15:06;;;;;;;10.60;4.40;;;4.60;99.90;;;;;;5065654;28;20528;-68
2022/03/13 09:17:34;;;;;;;7.63;3.63;;;4.70;99.90;;;;;;5062039;28;20294;-68
2022/03/13 09:20:01;;;;;;;7.87;4.20;;;4.80;99.90;;;;;;5062142;28;20650;-68
2022/03/13 09:22:29;;;;;;;7.23;3.50;;;4.80;99.90;;;;;;5054357;28;20216;-68
2022/03/13 09:24:58;;;;;;;5.17;3.37;;;4.70;99.90;;;;;;5049109;28;20214;-67
2022/03/13 09:27:30;;;;;;;7.90;3.03;;;4.50;99.90;;;;;;5059507;28;20183;-68
2022/03/13 09:29:57;;;;;;;4.73;3.10;;;4.40;99.90;;;;;;5062037;28;20187;-67
2022/03/13 09:32:25;;;;;;;4.63;3.37;;;4.40;99.90;;;;;;5063334;28;20695;-68
2022/03/13 09:34:54;;;;;;;9.27;3.93;;;4.50;99.90;;;;;;5041466;28;20560;-68
2022/03/13 09:37:21;;;;;;;5.80;3.40;;;4.50;99.90;;;;;;5057638;28;20219;-68
2022/03/13 09:39:48;;;;;;;7.93;3.20;;;4.40;99.90;;;;;;5027092;28;20252;-68
2022/03/13 09:42:14;;;;;;;7.70;3.70;;;4.40;99.90;;;;;;5066210;28;20244;-68
2022/03/13 09:44:41;;;;;;;4.70;3.10;;;4.30;99.90;;;;;;5056014;28;20218;-68
2022/03/13 09:47:11;;;;;;;5.93;3.07;;;4.20;99.90;;;;;;5041255;28;20223;-68
2022/03/13 09:49:41;;;;;;;6.83;3.43;;;4.10;99.90;;;;;;5026820;28;20206;-68
2022/03/13 09:52:11;;;;;;;6.83;3.40;;;4.20;99.90;;;;;;5051288;28;20213;-68
2022/03/13 09:54:37;;;;;;;8.93;3.90;;;4.10;99.90;;;;;;5061747;28;20195;-68
2022/03/13 09:57:05;;;;;;;4.93;3.47;;;4.20;99.90;;;;;;5055054;28;20202;-68
2022/03/13 09:59:33;;;;;;;11.80;3.73;;;4.20;99.90;;;;;;5063556;28;20247;-68
2022/03/13 10:01:59;;;;;;;5.17;3.37;;;4.20;99.90;;;;;;5063245;28;20194;-68
2022/03/13 10:04:25;;;;;;;6.10;3.57;;;4.20;99.90;;;;;;5048369;28;20198;-68
2022/03/13 10:07:14;;;;;;;4.00;2.73;;;4.10;99.90;;;;;;5046045;28;20883;-68
2022/03/13 10:09:45;;;;;;;3.97;3.00;;;3.70;99.90;;;;;;5045091;28;20631;-68
2022/03/13 10:12:17;;;;;;;6.50;3.50;;;3.50;99.90;;;;;;5069843;28;20221;-68
2022/03/13 10:15:06;;;;;;;5.60;3.70;;;3.40;99.90;;;;;;5070988;28;20201;-68
2022/03/13 10:17:36;;;;;;;6.27;3.67;;;3.40;99.90;;;;;;5040853;28;20274;-68
2022/03/13 10:20:23;;;;;;;6.07;3.70;;;3.40;99.90;;;;;;5063420;28;20691;-68
2022/03/13 10:23:01;;;;;;;6.43;3.90;;;3.40;99.90;;;;;;5049210;28;20292;-68
2022/03/13 10:25:41;;;;;;;8.13;4.30;;;3.50;99.90;;;;;;5051530;28;20277;-68
2022/03/13 10:28:33;;;;;;;5.00;3.50;;;3.50;99.90;;;;;;5038578;28;20667;-68
2022/03/13 10:30:59;;;;;;;7.03;3.33;;;3.60;99.90;;;;;;5065306;28;20836;-68
2022/03/13 10:33:27;;;;;;;7.67;3.00;;;3.80;99.90;;;;;;5050320;28;20187;-68
2022/03/13 10:36:21;;;;;;;4.87;2.80;;;3.90;99.90;;;;;;5068286;28;20245;-68
2022/03/13 10:38:49;;;;;;;6.47;3.17;;;3.90;99.90;;;;;;5066057;28;20231;-68
2022/03/13 10:41:17;;;;;;;5.07;3.10;;;3.90;99.90;;;;;;5035287;28;20671;-68
2022/03/13 10:43:55;;;;;;;5.00;2.63;;;4.00;99.90;;;;;;5064901;28;20726;-68
2022/03/13 10:46:35;;;;;;;7.77;3.20;;;4.10;99.90;;;;;;5048882;28;20584;-69
2022/03/13 10:49:06;;;;;;;6.80;2.90;;;4.30;99.90;;;;;;5053004;28;20869;-68
2022/03/13 10:51:49;;;;;;;5.10;3.30;;;4.30;99.90;;;;;;5069723;28;20297;-68
2022/03/13 10:54:32;;;;;;;4.87;3.57;;;4.30;99.90;;;;;;5050279;28;20643;-68
2022/03/13 10:57:10;;;;;;;8.97;3.60;;;4.40;99.90;;;;;;5063543;28;20314;-69
2022/03/13 10:59:40;;;;;;;5.83;3.13;;;4.40;99.90;;;;;;5044497;28;20195;-69
2022/03/13 11:02:21;;;;;;;5.07;3.00;;;4.40;99.90;;;;;;5065486;28;20182;-69
2022/03/13 11:04:55;;;;;;;3.73;2.60;;;4.40;99.90;;;;;;5067988;28;20197;-69
2022/03/13 11:07:24;;;;;;;4.60;3.10;;;4.50;99.90;;;;;;5066393;28;20193;-68
2022/03/13 11:09:51;;;;;;;5.20;2.90;;;4.50;99.90;;;;;;5065782;28;20215;-69
2022/03/13 11:12:21;;;;;;;4.67;3.13;;;4.40;99.90;;;;;;5049482;28;20195;-68
2022/03/13 11:14:52;;;;;;;8.07;3.40;;;4.40;99.90;;;;;;5043360;28;20186;-69
2022/03/13 11:17:30;;;;;;;4.80;3.10;;;4.30;99.90;;;;;;5063238;28;20272;-68
2022/03/13 11:20:01;;;;;;;6.90;3.43;;;4.30;99.90;;;;;;5069945;28;20233;-68
2022/03/13 11:22:29;;;;;;;5.93;2.50;;;4.40;99.90;;;;;;5067419;28;20197;-68
2022/03/13 11:25:07;;;;;;;4.87;2.87;;;4.50;99.90;;;;;;5024483;28;20194;-68
2022/03/13 11:27:38;;;;;;;5.80;2.53;;;4.50;99.90;;;;;;5064978;28;20237;-68
2022/03/13 11:30:08;;;;;;;4.90;3.00;;;4.70;99.90;;;;;;5069579;28;20246;-68
2022/03/13 11:32:53;;;;;;;6.27;2.87;;;4.80;99.90;;;;;;5065576;28;20202;-68
2022/03/13 11:35:30;;;;;;;4.97;2.93;;;4.80;99.90;;;;;;5061164;28;20183;-68
2022/03/13 11:38:06;;;;;;;5.97;2.77;;;5.00;99.90;;;;;;5069477;28;20201;-68
2022/03/13 11:40:39;;;;;;;5.07;2.87;;;5.10;99.90;;;;;;5067127;28;20198;-68
2022/03/13 11:43:21;;;;;;;3.37;2.53;;;5.30;99.90;;;;;;5045944;28;20245;-67
2022/03/13 11:46:00;;;;;;;7.03;2.53;;;5.50;99.90;;;;;;5034643;28;20187;-68
2022/03/13 11:48:29;;;;;;;3.90;2.40;;;5.70;99.90;;;;;;5068002;28;20214;-68
2022/03/13 11:51:03;;;;;;;6.40;2.87;;;5.90;99.90;;;;;;5058231;28;20278;-67
2022/03/13 11:53:45;;;;;;;7.63;3.00;;;6.20;99.90;;;;;;5046339;28;20217;-68
2022/03/13 11:56:32;;;;;;;6.40;2.80;;;6.40;99.90;;;;;;5068326;28;20218;-68
2022/03/13 11:59:19;;;;;;;7.73;3.47;;;6.30;99.90;;;;;;5061756;28;20277;-68
2022/03/13 12:01:48;;;;;;;9.13;3.23;;;6.30;99.90;;;;;;5068706;28;20186;-68
2022/03/13 12:04:14;;;;;;;4.90;3.10;;;6.20;99.90;;;;;;5055339;28;20184;-67
2022/03/13 12:06:44;;;;;;;5.70;2.77;;;6.00;99.90;;;;;;5053184;28;20249;-68
2022/03/13 12:09:13;;;;;;;5.90;3.30;;;6.00;99.90;;;;;;5066140;28;20195;-68
2022/03/13 12:12:04;;;;;;;6.50;2.77;;;6.00;99.90;;;;;;5060782;28;20227;-67
2022/03/13 12:15:05;;;;;;;4.57;2.07;;;6.00;99.90;;;;;;5042490;28;20187;-68
2022/03/13 12:17:51;;;;;;;5.80;2.37;;;5.90;99.90;;;;;;5016479;28;20225;-68
2022/03/13 12:20:28;;;;;;;3.50;2.27;;;5.90;99.90;;;;;;5069676;28;20217;-68
2022/03/13 12:22:57;;;;;;;3.07;2.00;;;6.10;99.90;;;;;;5063356;28;20179;-68
2022/03/13 12:25:26;;;;;;;4.83;1.93;;;6.30;99.90;;;;;;5061456;28;20206;-68
2022/03/13 12:27:57;;;;;;;3.63;1.80;;;6.10;99.90;;;;;;5058677;28;20627;-68
2022/03/13 12:30:34;;;;;;;3.07;1.90;;;6.10;99.90;;;;;;5049926;28;20665;-68
2022/03/13 12:33:05;;;;;;;2.40;1.80;;;6.20;99.90;;;;;;5030514;28;20186;-68
2022/03/13 12:35:32;;;;;;;4.70;2.17;;;6.20;99.90;;;;;;5044418;28;20249;-68
2022/03/13 12:38:01;;;;;;;3.77;1.73;;;6.20;99.90;;;;;;5068570;28;20309;-68
2022/03/13 12:40:33;;;;;;;2.53;2.00;;;6.10;99.90;;;;;;5044528;28;21043;-68
2022/03/13 12:43:01;;;;;;;3.93;2.00;;;6.20;99.90;;;;;;5067424;28;20659;-68
2022/03/13 12:45:28;;;;;;;4.40;2.00;;;6.20;99.90;;;;;;5050092;28;20695;-68
2022/03/13 12:48:00;;;;;;;4.27;2.20;;;6.30;99.90;;;;;;5030560;28;20218;-68
2022/03/13 12:50:27;;;;;;;2.90;2.10;;;6.40;99.90;;;;;;5015157;28;20210;-68
2022/03/13 12:53:02;;;;;;;5.30;2.20;;;6.60;99.90;;;;;;5060066;28;20272;-68
2022/03/13 12:55:30;;;;;;;3.13;1.90;;;6.60;99.90;;;;;;5023206;28;20213;-67
2022/03/13 12:57:57;;;;;;;8.97;2.03;;;6.40;99.90;;;;;;5067334;28;20229;-67
2022/03/13 13:00:35;;;;;;;3.20;1.90;;;6.20;99.90;;;;;;5046364;28;20194;-67
2022/03/13 13:03:06;;;;;;;5.57;2.10;;;6.10;99.90;;;;;;5065811;28;20174;-67
2022/03/13 13:05:33;;;;;;;2.70;1.90;;;6.00;99.90;;;;;;5062201;28;20664;-68
2022/03/13 13:08:00;;;;;;;3.90;2.10;;;6.00;99.90;;;;;;5050013;28;20190;-68